Time;durP1;ratioP1;P1;durP2;ratioP2;P2;SDS_P1;SDS_P2;PMS_P1;PMS_P2;Temp;Humidity;BMP_temperature;BMP_pressure;BME280_temperature;BME280_humidity;BME280_pressure;Samples;Min_cycle;Max_cycle;Signal;HPM_P1;HPM_P2
2024/01/22 00:04:03;;;;;;;;;;;;;;;16.57;36.97;99372.13;10326452;28;775;-72
2024/01/22 00:08:59;;;;;;;;;;;;;;;16.56;37.16;99323.06;10326390;28;858;-72
2024/01/22 00:13:55;;;;;;;;;;;;;;;16.52;37.21;99313.59;10326129;28;1889;-71
2024/01/22 00:18:51;;;;;;;;;;;;;;;16.52;37.21;99295.16;10326134;28;779;-71
2024/01/22 00:23:47;;;;;;;;;;;;;;;16.52;37.05;99284.66;10325978;28;775;-72
2024/01/22 00:28:43;;;;;;;;;;;;;;;16.52;37.14;99294.31;10326715;28;1165;-71
2024/01/22 00:33:39;;;;;;;;;;;;;;;16.52;37.27;99265.38;10325540;28;1910;-71
2024/01/22 00:38:35;;;;;;;;;;;;;;;16.49;37.15;99262.91;10326500;28;937;-71
2024/01/22 00:43:31;;;;;;;;;;;;;;;16.52;37.20;99254.88;10326190;28;925;-71
2024/01/22 00:48:27;;;;;;;;;;;;;;;16.50;37.27;99222.50;10325968;28;878;-71
2024/01/22 00:53:23;;;;;;;;;;;;;;;16.50;37.34;99210.19;10325829;28;1957;-71
2024/01/22 00:58:19;;;;;;;;;;;;;;;16.49;37.41;99203.25;10325332;28;983;-71
2024/01/22 01:03:15;;;;;;;;;;;;;;;16.48;37.34;99190.16;10325653;28;834;-71
2024/01/22 01:08:11;;;;;;;;;;;;;;;16.52;37.32;99168.06;10325063;28;917;-71
2024/01/22 01:13:07;;;;;;;;;;;;;;;16.50;37.49;99164.63;10324804;28;1941;-72
2024/01/22 01:18:03;;;;;;;;;;;;;;;16.51;37.26;99169.00;10324879;28;766;-71
2024/01/22 01:22:59;;;;;;;;;;;;;;;16.48;37.42;99148.06;10325325;28;850;-71
2024/01/22 01:27:54;;;;;;;;;;;;;;;16.51;37.34;99105.84;10325362;28;1375;-72
2024/01/22 01:32:50;;;;;;;;;;;;;;;16.48;37.56;99127.00;10332114;28;1913;-71
2024/01/22 01:37:46;;;;;;;;;;;;;;;16.49;37.50;99113.81;10332832;28;947;-71
2024/01/22 01:42:43;;;;;;;;;;;;;;;16.46;37.63;99069.22;10332109;28;880;-71
2024/01/22 01:47:39;;;;;;;;;;;;;;;16.45;37.48;99054.38;10333035;28;864;-71
2024/01/22 01:52:34;;;;;;;;;;;;;;;16.46;37.45;99050.81;10331599;28;1969;-71
2024/01/22 01:57:30;;;;;;;;;;;;;;;16.49;37.54;99073.50;10331475;28;775;-71
2024/01/22 02:02:26;;;;;;;;;;;;;;;16.53;37.68;99046.09;10331976;28;799;-71
2024/01/22 02:07:22;;;;;;;;;;;;;;;16.44;37.70;99021.09;10330960;28;969;-72
2024/01/22 02:12:18;;;;;;;;;;;;;;;16.44;37.85;99008.78;10330912;28;1949;-71
2024/01/22 02:17:14;;;;;;;;;;;;;;;16.47;37.77;99010.44;10330796;28;830;-72
2024/01/22 02:22:10;;;;;;;;;;;;;;;16.43;37.70;98990.47;10330074;28;783;-71
2024/01/22 02:27:06;;;;;;;;;;;;;;;16.44;37.85;99048.25;10330927;28;1144;-71
2024/01/22 02:32:02;;;;;;;;;;;;;;;16.45;37.73;99014.91;10330797;28;1902;-71
2024/01/22 02:36:58;;;;;;;;;;;;;;;16.43;37.81;99028.16;10330193;28;850;-71
2024/01/22 02:41:53;;;;;;;;;;;;;;;16.44;37.78;99023.72;10328972;28;843;-72
2024/01/22 02:46:49;;;;;;;;;;;;;;;16.50;37.71;99043.63;10330505;28;892;-71
2024/01/22 02:51:45;;;;;;;;;;;;;;;16.41;37.95;99002.84;10329547;28;928;-71
2024/01/22 02:56:41;;;;;;;;;;;;;;;16.41;37.86;98979.19;10329506;28;1889;-71
2024/01/22 03:01:37;;;;;;;;;;;;;;;16.41;37.96;98956.34;10329105;28;978;-71
2024/01/22 03:06:33;;;;;;;;;;;;;;;16.41;37.87;98926.56;10328446;28;818;-72
2024/01/22 03:11:29;;;;;;;;;;;;;;;16.38;37.99;98929.38;10328671;28;802;-71
2024/01/22 03:16:24;;;;;;;;;;;;;;;16.39;37.83;98894.22;10329082;28;1893;-71
2024/01/22 03:21:20;;;;;;;;;;;;;;;16.37;38.03;98886.44;10328906;28;861;-71
2024/01/22 03:26:16;;;;;;;;;;;;;;;16.41;37.90;98909.00;10327954;28;1275;-71
2024/01/22 03:31:12;;;;;;;;;;;;;;;16.41;38.00;98937.09;10327385;28;949;-72
2024/01/22 03:36:08;;;;;;;;;;;;;;;16.42;37.99;98958.03;10328204;28;1980;-72
2024/01/22 03:41:04;;;;;;;;;;;;;;;16.40;37.97;98954.66;10327043;28;909;-71
2024/01/22 03:46:00;;;;;;;;;;;;;;;16.48;38.12;98971.81;10326632;28;1028;-71
2024/01/22 03:50:55;;;;;;;;;;;;;;;16.37;38.04;98943.44;10327029;28;793;-72
2024/01/22 03:55:51;;;;;;;;;;;;;;;16.42;38.23;98962.47;10326781;28;1906;-71
2024/01/22 04:00:47;;;;;;;;;;;;;;;16.42;38.01;98942.25;10327289;28;854;-71
2024/01/22 04:05:43;;;;;;;;;;;;;;;16.39;38.14;98949.47;10325824;28;1126;-72
2024/01/22 04:10:39;;;;;;;;;;;;;;;16.38;38.44;98935.47;10326382;28;849;-71
2024/01/22 04:15:35;;;;;;;;;;;;;;;16.35;38.40;98922.47;10326189;28;1969;-72
2024/01/22 04:20:31;;;;;;;;;;;;;;;16.37;38.23;98925.00;10326394;28;842;-72
2024/01/22 04:25:27;;;;;;;;;;;;;;;16.36;38.34;98887.34;10325789;28;1255;-71
2024/01/22 04:30:22;;;;;;;;;;;;;;;16.34;38.40;98897.09;10326554;28;999;-71
2024/01/22 04:35:18;;;;;;;;;;;;;;;16.36;38.51;98879.47;10325574;28;1914;-71
2024/01/22 04:40:14;;;;;;;;;;;;;;;16.35;38.61;98874.31;10326243;28;897;-71
2024/01/22 04:45:10;;;;;;;;;;;;;;;16.35;38.55;98856.72;10325806;28;872;-71
2024/01/22 04:50:06;;;;;;;;;;;;;;;16.36;38.51;98868.94;10326114;28;810;-71
2024/01/22 04:55:02;;;;;;;;;;;;;;;16.38;38.63;98839.94;10325563;28;1943;-72
2024/01/22 04:59:58;;;;;;;;;;;;;;;16.39;38.53;98820.59;10324616;28;928;-72
2024/01/22 05:04:54;;;;;;;;;;;;;;;16.38;38.81;98825.00;10329180;28;859;-71
2024/01/22 05:09:50;;;;;;;;;;;;;;;16.41;38.67;98816.13;10333459;28;775;-72
2024/01/22 05:14:46;;;;;;;;;;;;;;;16.48;38.74;98800.84;10334171;28;1902;-71
2024/01/22 05:19:42;;;;;;;;;;;;;;;16.48;38.96;98799.09;10333052;28;934;-71
2024/01/22 05:24:37;;;;;;;;;;;;;;;16.47;38.94;98802.63;10332980;28;1109;-72
2024/01/22 05:29:33;;;;;;;;;;;;;;;16.48;38.83;98795.56;10333132;28;1140;-71
2024/01/22 05:34:29;;;;;;;;;;;;;;;16.51;38.80;98787.56;10332968;28;2242;-72
2024/01/22 05:39:27;;;;;;;;;;;;;;;16.51;39.12;98798.91;10332098;28;817;-71
2024/01/22 05:44:23;;;;;;;;;;;;;;;16.52;39.09;98790.09;10332447;28;842;-72
2024/01/22 05:49:19;;;;;;;;;;;;;;;16.56;39.04;98780.25;10332413;28;841;-71
2024/01/22 05:54:15;;;;;;;;;;;;;;;16.59;39.08;98780.09;10332184;28;1971;-72
2024/01/22 05:59:10;;;;;;;;;;;;;;;16.59;39.05;98756.41;10332046;28;898;-72
2024/01/22 06:04:07;;;;;;;;;;;;;;;16.59;39.24;98774.84;10331956;28;782;-72
2024/01/22 06:09:03;;;;;;;;;;;;;;;16.59;39.12;98782.72;10331409;28;850;-72
2024/01/22 06:13:58;;;;;;;;;;;;;;;16.61;39.36;98768.56;10330252;28;1949;-71
2024/01/22 06:18:54;;;;;;;;;;;;;;;16.61;39.20;98768.56;10330824;28;866;-71
2024/01/22 06:23:50;;;;;;;;;;;;;;;16.64;39.38;98755.22;10330843;28;1063;-71
2024/01/22 06:28:49;;;;;;;;;;;;;;;16.62;39.41;98754.47;10330702;28;1299;-71
2024/01/22 06:33:45;;;;;;;;;;;;;;;16.67;39.70;98756.84;10330595;28;1914;-73
2024/01/22 06:38:41;;;;;;;;;;;;;;;16.63;39.63;98760.56;10329436;28;881;-72
2024/01/22 06:43:37;;;;;;;;;;;;;;;16.63;39.85;98744.78;10329856;28;980;-72
2024/01/22 06:48:33;;;;;;;;;;;;;;;16.70;39.57;98750.56;10329939;28;806;-72
2024/01/22 06:53:28;;;;;;;;;;;;;;;16.67;39.73;98751.59;10329420;28;1948;-71
2024/01/22 06:58:24;;;;;;;;;;;;;;;16.69;39.40;98738.31;10329284;28;926;-71
2024/01/22 07:03:20;;;;;;;;;;;;;;;16.68;39.62;98745.38;10329938;28;938;-71
2024/01/22 07:08:17;;;;;;;;;;;;;;;16.69;39.42;98744.47;10328316;28;933;-77
2024/01/22 07:13:13;;;;;;;;;;;;;;;16.60;39.78;98743.16;10328638;28;1955;-77
2024/01/22 07:18:09;;;;;;;;;;;;;;;16.55;39.67;98739.09;10328513;28;940;-77
2024/01/22 07:23:05;;;;;;;;;;;;;;;16.53;39.79;98747.09;10328934;28;814;-75
2024/01/22 07:28:01;;;;;;;;;;;;;;;16.50;39.73;98759.53;10328249;28;1235;-76
2024/01/22 07:32:57;;;;;;;;;;;;;;;16.47;40.14;98767.59;10327826;28;1914;-77
2024/01/22 07:37:53;;;;;;;;;;;;;;;16.44;39.86;98776.50;10327693;28;841;-80
2024/01/22 07:42:49;;;;;;;;;;;;;;;16.42;39.81;98768.66;10328129;28;862;-76
2024/01/22 07:47:45;;;;;;;;;;;;;;;16.41;39.87;98753.00;10327260;28;802;-77
2024/01/22 07:52:41;;;;;;;;;;;;;;;16.39;40.17;98766.22;10327579;28;1951;-77
2024/01/22 07:57:36;;;;;;;;;;;;;;;16.39;39.98;98779.34;10326867;28;1041;-83
2024/01/22 08:02:32;;;;;;;;;;;;;;;16.39;40.21;98792.50;10326355;28;1055;-77
2024/01/22 08:07:28;;;;;;;;;;;;;;;16.37;40.09;98786.50;10327174;28;793;-77
2024/01/22 08:12:24;;;;;;;;;;;;;;;16.39;40.10;98789.03;10326345;28;1894;-77
2024/01/22 08:17:20;;;;;;;;;;;;;;;16.38;39.96;98803.97;10326229;28;943;-77
2024/01/22 08:22:16;;;;;;;;;;;;;;;16.40;40.15;98809.13;10326007;28;984;-77
2024/01/22 08:27:12;;;;;;;;;;;;;;;16.39;40.22;98831.13;10325919;28;1127;-77
2024/01/22 08:32:07;;;;;;;;;;;;;;;16.37;40.17;98839.09;10325848;28;904;-77
2024/01/22 08:37:03;;;;;;;;;;;;;;;16.38;40.19;98821.53;10326223;28;1972;-77
2024/01/22 08:41:59;;;;;;;;;;;;;;;16.49;40.40;98821.81;10325224;28;846;-72
2024/01/22 08:46:55;;;;;;;;;;;;;;;16.56;40.90;98835.50;10326056;28;917;-72
2024/01/22 08:51:51;;;;;;;;;;;;;;;16.51;40.65;98829.63;10325969;28;914;-71
2024/01/22 08:56:47;;;;;;;;;;;;;;;16.57;41.06;98837.19;10325166;28;1951;-72
2024/01/22 09:01:43;;;;;;;;;;;;;;;16.57;40.93;98829.31;10325816;28;843;-71
2024/01/22 09:06:39;;;;;;;;;;;;;;;16.55;40.66;98821.47;10325055;28;889;-72
2024/01/22 09:11:35;;;;;;;;;;;;;;;16.58;40.96;98828.34;10325215;28;857;-72
2024/01/22 09:16:31;;;;;;;;;;;;;;;16.62;41.09;98817.59;10325445;28;1953;-72
2024/01/22 09:21:26;;;;;;;;;;;;;;;16.60;40.90;98821.25;10324719;28;914;-72
2024/01/22 09:26:22;;;;;;;;;;;;;;;16.65;40.74;98811.31;10324612;28;1254;-75
2024/01/22 09:31:18;;;;;;;;;;;;;;;16.57;40.73;98806.47;10325179;28;1573;-74
2024/01/22 09:36:14;;;;;;;;;;;;;;;16.55;40.81;98807.47;10324473;28;1914;-74
2024/01/22 09:41:10;;;;;;;;;;;;;;;16.55;40.99;98804.84;10324204;28;878;-74
2024/01/22 09:46:06;;;;;;;;;;;;;;;16.53;40.85;98826.00;10324384;28;774;-74
2024/01/22 09:51:02;;;;;;;;;;;;;;;16.56;41.18;98807.41;10328351;28;842;-74
2024/01/22 09:55:58;;;;;;;;;;;;;;;16.51;40.82;98812.06;10331622;28;1901;-74
2024/01/22 10:00:54;;;;;;;;;;;;;;;16.51;40.79;98804.19;10331531;28;763;-75
2024/01/22 10:05:49;;;;;;;;;;;;;;;16.53;41.27;98807.59;10331917;28;892;-74
2024/01/22 10:10:45;;;;;;;;;;;;;;;16.66;41.08;98799.84;10331997;28;768;-74
2024/01/22 10:15:41;;;;;;;;;;;;;;;16.72;40.97;98786.41;10331543;28;1898;-73
2024/01/22 10:20:37;;;;;;;;;;;;;;;16.69;41.03;98783.94;10331748;28;813;-77
2024/01/22 10:25:33;;;;;;;;;;;;;;;16.68;40.99;98771.69;10331254;28;1347;-74
2024/01/22 10:30:29;;;;;;;;;;;;;;;16.75;41.03;98788.84;10331011;28;834;-74
2024/01/22 10:35:26;;;;;;;;;;;;;;;16.73;40.95;98774.06;10329595;28;1910;-75
2024/01/22 10:40:22;;;;;;;;;;;;;;;16.67;40.81;98775.28;10330148;28;821;-74
2024/01/22 10:45:17;;;;;;;;;;;;;;;16.71;40.96;98776.78;10329886;28;805;-73
2024/01/22 10:50:13;;;;;;;;;;;;;;;16.78;41.00;98775.56;10329661;28;876;-73
2024/01/22 10:55:09;;;;;;;;;;;;;;;16.83;41.13;98772.69;10320128;28;1956;-72
2024/01/22 11:00:06;;;;;;;;;;;;;;;16.77;41.01;98757.22;10329208;28;857;-83
2024/01/22 11:05:02;;;;;;;;;;;;;;;16.78;40.95;98774.72;10328170;28;934;-71
2024/01/22 11:09:59;;;;;;;;;;;;;;;16.77;41.04;98751.94;10330014;28;925;-73
2024/01/22 11:14:54;;;;;;;;;;;;;;;16.80;41.05;98747.38;10326078;28;1969;-72
2024/01/22 11:19:50;;;;;;;;;;;;;;;16.86;41.29;98754.09;10328073;28;773;-73
2024/01/22 11:24:46;;;;;;;;;;;;;;;16.81;41.22;98742.97;10327083;28;1177;-72
2024/01/22 11:29:42;;;;;;;;;;;;;;;16.85;41.17;98741.88;10301228;28;1829;-72
2024/01/22 11:34:38;;;;;;;;;;;;;;;16.83;40.88;98739.31;10286791;28;1910;-72
2024/01/22 11:39:35;;;;;;;;;;;;;;;16.80;41.25;98731.59;10286015;28;1079;-75
2024/01/22 11:44:30;;;;;;;;;;;;;;;16.85;40.97;98744.50;10287148;28;1005;-73
2024/01/22 11:49:26;;;;;;;;;;;;;;;16.86;40.95;98725.97;10286410;28;845;-72
2024/01/22 11:54:22;;;;;;;;;;;;;;;16.84;41.26;98737.53;10286648;28;1890;-73
2024/01/22 11:59:18;;;;;;;;;;;;;;;16.84;41.15;98733.09;10285561;28;877;-72
2024/01/22 12:04:14;;;;;;;;;;;;;;;16.86;41.58;98712.81;10285306;28;1004;-77
2024/01/22 12:09:10;;;;;;;;;;;;;;;16.88;41.55;98717.16;10284400;28;1164;-73
2024/01/22 12:14:06;;;;;;;;;;;;;;;16.88;41.55;98722.44;10285568;28;1960;-72
2024/01/22 12:19:01;;;;;;;;;;;;;;;16.92;41.57;98721.31;10285320;28;791;-72
2024/01/22 12:23:58;;;;;;;;;;;;;;;16.86;41.51;98723.34;10284518;28;837;-73
2024/01/22 12:28:53;;;;;;;;;;;;;;;16.89;41.52;98718.84;10285316;28;1180;-73
2024/01/22 12:33:49;;;;;;;;;;;;;;;16.91;41.51;98738.03;10285358;28;1918;-73
2024/01/22 12:38:45;;;;;;;;;;;;;;;16.91;41.79;98778.38;10285151;28;929;-73
2024/01/22 12:43:41;;;;;;;;;;;;;;;16.95;42.02;98792.19;10284433;28;972;-73
2024/01/22 12:48:37;;;;;;;;;;;;;;;16.91;41.86;98806.47;10284506;28;779;-73
2024/01/22 12:53:33;;;;;;;;;;;;;;;16.90;41.77;98845.13;10284248;28;1898;-73
2024/01/22 12:58:29;;;;;;;;;;;;;;;16.92;41.51;98855.53;10283634;28;1033;-74
2024/01/22 13:03:25;;;;;;;;;;;;;;;16.96;41.47;98843.94;10283515;28;874;-72
2024/01/22 13:08:21;;;;;;;;;;;;;;;17.01;41.33;98868.22;10284127;28;771;-72
2024/01/22 13:13:17;;;;;;;;;;;;;;;17.07;41.21;98870.53;10306042;28;1951;-73
2024/01/22 13:18:12;;;;;;;;;;;;;;;17.08;41.39;98874.84;10324670;28;881;-72
2024/01/22 13:23:08;;;;;;;;;;;;;;;17.08;41.25;98880.97;10324597;28;1016;-74
2024/01/22 13:28:04;;;;;;;;;;;;;;;17.03;41.34;98908.50;10331436;28;1538;-72
2024/01/22 13:33:04;;;;;;;;;;;;;;;17.02;41.43;98938.38;10331740;28;1910;-72
2024/01/22 13:38:00;;;;;;;;;;;;;;;17.02;41.33;98928.69;10332545;28;827;-72
2024/01/22 13:42:56;;;;;;;;;;;;;;;17.02;41.34;98926.03;10332062;28;778;-72
2024/01/22 13:47:51;;;;;;;;;;;;;;;17.03;41.34;98948.81;10331563;28;830;-71
2024/01/22 13:52:47;;;;;;;;;;;;;;;17.04;41.33;98957.56;10331732;28;1898;-70
2024/01/22 13:57:43;;;;;;;;;;;;;;;17.28;41.01;98936.97;10331961;28;849;-69
2024/01/22 14:02:39;;;;;;;;;;;;;;;17.39;40.66;98960.94;10331264;28;814;-68
2024/01/22 14:07:35;;;;;;;;;;;;;;;17.29;41.08;98955.34;10331676;28;855;-69
2024/01/22 14:12:31;;;;;;;;;;;;;;;17.27;41.07;98965.09;10331464;28;1898;-68
2024/01/22 14:17:27;;;;;;;;;;;;;;;17.31;41.14;98948.19;10330691;28;917;-69
2024/01/22 14:22:22;;;;;;;;;;;;;;;17.33;41.53;98948.09;10330811;28;803;-69
2024/01/22 14:27:21;;;;;;;;;;;;;;;17.34;41.76;98956.84;10330100;28;1119;-69
2024/01/22 14:32:17;;;;;;;;;;;;;;;17.35;42.12;98969.97;10331453;28;940;-69
2024/01/22 14:37:14;;;;;;;;;;;;;;;17.35;42.18;98979.66;10329312;28;1967;-69
2024/01/22 14:42:10;;;;;;;;;;;;;;;17.31;42.13;98992.13;10327206;28;1211;-70
2024/01/22 14:47:06;;;;;;;;;;;;;;;17.27;42.18;98983.53;10329403;28;876;-71
2024/01/22 14:52:02;;;;;;;;;;;;;;;17.26;41.84;98996.78;10328905;28;819;-71
2024/01/22 14:56:58;;;;;;;;;;;;;;;17.29;41.87;98996.59;10328826;28;1963;-71
2024/01/22 15:01:54;;;;;;;;;;;;;;;17.26;41.75;98996.78;10329212;28;842;-71
2024/01/22 15:06:51;;;;;;;;;;;;;;;17.23;41.74;98989.88;10328874;28;881;-78
2024/01/22 15:11:47;;;;;;;;;;;;;;;17.21;41.74;99006.69;10328134;28;1154;-76
2024/01/22 15:16:43;;;;;;;;;;;;;;;17.16;41.65;99001.69;10328921;28;1955;-86
2024/01/22 15:21:39;;;;;;;;;;;;;;;17.16;41.71;99001.69;10327945;28;945;-85
2024/01/22 15:26:35;;;;;;;;;;;;;;;17.14;41.42;98998.28;10328686;28;1160;-72
2024/01/22 15:31:31;;;;;;;;;;;;;;;17.15;41.50;99010.50;10328138;28;901;-71
2024/01/22 15:36:27;;;;;;;;;;;;;;;17.13;41.36;99014.16;10328454;28;1969;-70
2024/01/22 15:41:24;;;;;;;;;;;;;;;17.13;41.30;99020.25;10327389;28;796;-71
2024/01/22 15:46:20;;;;;;;;;;;;;;;17.14;41.36;99027.25;10326887;28;802;-70
2024/01/22 15:51:16;;;;;;;;;;;;;;;17.16;41.48;99029.78;10327518;28;870;-69
2024/01/22 15:56:12;;;;;;;;;;;;;;;17.17;41.71;99035.00;10327497;28;1901;-70
2024/01/22 16:01:08;;;;;;;;;;;;;;;17.18;41.76;99046.38;10326885;28;977;-72
2024/01/22 16:06:05;;;;;;;;;;;;;;;17.17;41.64;99058.69;10326251;28;774;-71
2024/01/22 16:11:01;;;;;;;;;;;;;;;17.17;41.49;99061.31;10326288;28;1713;-70
2024/01/22 16:15:57;;;;;;;;;;;;;;;17.19;41.35;99082.31;10326252;28;1918;-70
2024/01/22 16:20:53;;;;;;;;;;;;;;;17.17;41.53;99095.56;10327177;28;1620;-70
2024/01/22 16:25:49;;;;;;;;;;;;;;;17.17;41.32;99116.63;10326874;28;1405;-70
2024/01/22 16:30:45;;;;;;;;;;;;;;;17.16;41.48;99132.50;10325891;28;826;-70
2024/01/22 16:35:41;;;;;;;;;;;;;;;17.18;41.35;99136.75;10326343;28;2022;-70
2024/01/22 16:40:36;;;;;;;;;;;;;;;17.20;41.11;99158.59;10326236;28;855;-70
2024/01/22 16:45:32;;;;;;;;;;;;;;;17.19;41.08;99159.53;10325579;28;867;-70
2024/01/22 16:50:28;;;;;;;;;;;;;;;17.20;41.23;99158.59;10326170;28;866;-70
2024/01/22 16:55:24;;;;;;;;;;;;;;;17.16;41.36;99170.22;10326117;28;1897;-70
2024/01/22 17:00:21;;;;;;;;;;;;;;;17.18;41.26;99172.78;10324334;28;877;-71
2024/01/22 17:05:17;;;;;;;;;;;;;;;17.19;41.15;99177.97;10325082;28;962;-70
2024/01/22 17:10:13;;;;;;;;;;;;;;;17.17;41.01;99187.72;10325096;28;712;-70
2024/01/22 17:15:09;;;;;;;;;;;;;;;17.21;41.11;99207.72;10324928;28;1965;-71
2024/01/22 17:20:08;;;;;;;;;;;;;;;17.20;40.83;99207.78;10324888;28;790;-70
2024/01/22 17:25:04;;;;;;;;;;;;;;;17.22;40.59;99216.47;10324722;28;1594;-71
2024/01/22 17:30:00;;;;;;;;;;;;;;;17.21;40.59;99236.69;10324133;28;835;-70
2024/01/22 17:34:56;;;;;;;;;;;;;;;17.19;40.76;99238.56;10324537;28;1914;-70
2024/01/22 17:39:52;;;;;;;;;;;;;;;17.19;40.90;99238.56;10325058;28;987;-71
2024/01/22 17:44:49;;;;;;;;;;;;;;;17.21;40.50;99241.09;10324846;28;968;-71
2024/01/22 17:49:45;;;;;;;;;;;;;;;17.23;40.57;99266.44;10324277;28;794;-71
2024/01/22 17:54:40;;;;;;;;;;;;;;;17.20;40.54;99260.47;10324779;28;1893;-70
2024/01/22 17:59:36;;;;;;;;;;;;;;;17.21;40.62;99262.16;10324681;28;890;-71
2024/01/22 18:04:32;;;;;;;;;;;;;;;17.27;40.48;99293.50;10323856;28;977;-70
2024/01/22 18:09:28;;;;;;;;;;;;;;;17.22;40.44;99298.97;10323399;28;839;-71
2024/01/22 18:14:24;;;;;;;;;;;;;;;17.25;40.40;99317.25;10331067;28;1897;-74
2024/01/22 18:19:22;;;;;;;;;;;;;;;17.18;40.52;99331.63;10331520;28;944;-72
2024/01/22 18:24:17;;;;;;;;;;;;;;;17.17;40.42;99337.00;10331787;28;826;-73
2024/01/22 18:29:14;;;;;;;;;;;;;;;17.17;40.29;99360.69;10331012;28;1336;-74
2024/01/22 18:34:10;;;;;;;;;;;;;;;17.17;40.58;99365.97;10329940;28;1905;-73
2024/01/22 18:44:07;;;;;;;;;;;;;;;17.21;40.42;99363.13;10330710;28;810;-73
2024/01/22 18:49:03;;;;;;;;;;;;;;;17.21;40.43;99365.75;10329828;28;800;-72
2024/01/22 18:53:59;;;;;;;;;;;;;;;17.21;40.44;99373.66;10329629;28;1885;-73
2024/01/22 18:58:55;;;;;;;;;;;;;;;17.20;40.45;99371.09;10330096;28;862;-73
2024/01/22 19:03:51;;;;;;;;;;;;;;;17.25;40.29;99384.88;10329335;28;896;-73
2024/01/22 19:08:47;;;;;;;;;;;;;;;17.28;40.14;99395.28;10324082;28;1100;-73
2024/01/22 19:13:43;;;;;;;;;;;;;;;17.24;40.20;99399.84;10329506;28;1894;-73
2024/01/22 19:18:39;;;;;;;;;;;;;;;17.23;40.29;99402.53;10328738;28;822;-73
2024/01/22 19:23:35;;;;;;;;;;;;;;;17.25;40.26;99416.50;10327905;28;952;-72
2024/01/22 19:28:31;;;;;;;;;;;;;;;17.28;40.02;99433.00;10328205;28;1386;-72
2024/01/22 19:33:27;;;;;;;;;;;;;;;17.23;40.05;99436.78;10328034;28;1909;-73
2024/01/22 19:38:24;;;;;;;;;;;;;;;17.23;40.19;99434.16;10327840;28;1060;-72
2024/01/22 19:43:20;;;;;;;;;;;;;;;17.25;40.10;99441.06;10327737;28;777;-73
2024/01/22 19:48:16;;;;;;;;;;;;;;;17.27;39.91;99446.25;10327519;28;775;-73
2024/01/22 19:53:11;;;;;;;;;;;;;;;17.31;39.69;99461.84;10327209;28;1987;-73
2024/01/22 19:58:07;;;;;;;;;;;;;;;17.32;39.56;99483.78;10327695;28;937;-72
2024/01/22 20:03:03;;;;;;;;;;;;;;;17.22;40.07;99480.72;10327986;28;793;-72
2024/01/22 20:07:59;;;;;;;;;;;;;;;17.24;39.97;99492.03;10326976;28;803;-73
2024/01/22 20:12:55;;;;;;;;;;;;;;;17.25;39.91;99485.84;10326792;28;1968;-74
2024/01/22 20:17:51;;;;;;;;;;;;;;;17.27;39.63;99481.34;10327321;28;853;-74
2024/01/22 20:22:48;;;;;;;;;;;;;;;17.24;39.90;99502.56;10326784;28;968;-79
2024/01/22 20:27:44;;;;;;;;;;;;;;;17.29;39.70;99504.97;10325411;28;1249;-74
2024/01/22 20:32:41;;;;;;;;;;;;;;;17.25;39.87;99524.50;10326260;28;1910;-74
2024/01/22 20:37:38;;;;;;;;;;;;;;;17.28;39.98;99506.75;10325142;28;879;-79
2024/01/22 20:42:35;;;;;;;;;;;;;;;17.24;40.01;99513.09;10325642;28;998;-72
2024/01/22 20:47:31;;;;;;;;;;;;;;;17.30;39.90;99525.16;10326169;28;921;-72
2024/01/22 20:52:27;;;;;;;;;;;;;;;17.24;40.02;99526.28;10325492;28;883;-73
2024/01/22 20:57:23;;;;;;;;;;;;;;;17.25;40.21;99527.13;10325315;28;1951;-73
2024/01/22 21:02:19;;;;;;;;;;;;;;;17.26;40.03;99519.13;10325260;28;958;-73
2024/01/22 21:07:15;;;;;;;;;;;;;;;17.27;39.98;99520.88;10324783;28;1008;-73
2024/01/22 21:12:11;;;;;;;;;;;;;;;17.25;40.01;99525.34;10325150;28;844;-73
2024/01/22 21:17:06;;;;;;;;;;;;;;;17.23;39.85;99514.00;10325149;28;1949;-73
2024/01/22 21:22:02;;;;;;;;;;;;;;;17.27;39.69;99510.34;10324894;28;813;-74
2024/01/22 21:27:04;;;;;;;;;;;;;;;17.26;39.73;99532.31;10324584;28;1247;-73
2024/01/22 21:31:59;;;;;;;;;;;;;;;17.25;39.70;99527.97;10324650;28;957;-73
2024/01/22 21:36:55;;;;;;;;;;;;;;;17.22;39.87;99522.00;10306588;28;2141;-82
2024/01/22 21:41:53;;;;;;;;;;;;;;;17.27;39.48;99520.03;10324545;28;864;-82
2024/01/22 21:46:49;;;;;;;;;;;;;;;17.25;39.43;99498.16;10329073;28;870;-78
2024/01/22 21:51:45;;;;;;;;;;;;;;;17.21;39.79;99522.91;10332868;28;971;-79
2024/01/22 21:56:40;;;;;;;;;;;;;;;17.24;39.49;99531.53;10332353;28;1905;-78
2024/01/22 22:01:36;;;;;;;;;;;;;;;17.20;40.04;99524.69;10332892;28;849;-77
2024/01/22 22:06:33;;;;;;;;;;;;;;;17.19;39.95;99538.78;10331602;28;858;-71
2024/01/22 22:11:28;;;;;;;;;;;;;;;17.15;39.88;99512.66;10331205;28;914;-79
2024/01/22 22:16:25;;;;;;;;;;;;;;;17.10;40.16;99526.00;10331615;28;1897;-81
2024/01/22 22:21:21;;;;;;;;;;;;;;;17.09;39.92;99521.69;10330885;28;906;-81
2024/01/22 22:26:17;;;;;;;;;;;;;;;17.08;39.97;99538.38;10330513;28;1420;-78
2024/01/22 22:31:13;;;;;;;;;;;;;;;17.12;40.11;99536.50;10331634;28;1581;-73
2024/01/22 22:36:09;;;;;;;;;;;;;;;17.08;39.96;99530.50;10330639;28;1918;-74
2024/01/22 22:41:05;;;;;;;;;;;;;;;17.08;40.21;99543.66;10330315;28;830;-86
2024/01/22 22:46:01;;;;;;;;;;;;;;;17.13;40.01;99541.69;10330041;28;886;-84
2024/01/22 22:50:57;;;;;;;;;;;;;;;17.09;40.16;99545.38;10329824;28;934;-85
2024/01/22 22:55:52;;;;;;;;;;;;;;;17.07;40.07;99547.22;10328768;28;1902;-85
2024/01/22 23:00:48;;;;;;;;;;;;;;;17.05;40.32;99555.19;10328875;28;794;-85
2024/01/22 23:05:44;;;;;;;;;;;;;;;17.05;40.29;99570.13;10329245;28;880;-85
2024/01/22 23:10:40;;;;;;;;;;;;;;;17.04;40.39;99555.25;10330333;28;884;-85
2024/01/22 23:15:36;;;;;;;;;;;;;;;17.04;40.22;99560.53;10329404;28;1894;-85
2024/01/22 23:20:32;;;;;;;;;;;;;;;17.03;40.32;99569.34;10328699;28;1168;-85
2024/01/22 23:25:29;;;;;;;;;;;;;;;17.02;40.40;99578.16;10328343;28;1158;-86
2024/01/22 23:30:25;;;;;;;;;;;;;;;17.01;40.41;99576.47;10328275;28;886;-84
2024/01/22 23:35:21;;;;;;;;;;;;;;;17.00;40.10;99586.16;10328131;28;1918;-85
2024/01/22 23:40:17;;;;;;;;;;;;;;;17.00;40.47;99574.72;10328513;28;870;-84
2024/01/22 23:45:13;;;;;;;;;;;;;;;17.02;40.03;99565.84;10327698;28;814;-84
2024/01/22 23:50:10;;;;;;;;;;;;;;;17.00;40.28;99575.63;10328108;28;882;-84
2024/01/22 23:55:06;;;;;;;;;;;;;;;16.97;40.43;99578.34;10327481;28;1964;-84
